sensor_id;sensor_type;location;lat;lon;timestamp;P1;durP1;ratioP1;P2;durP2;ratioP2
16430;SDS011;8325;49.284;7.238;2022-10-16T04:01:37;2.78;;;0.70;;
16430;SDS011;8325;49.284;7.238;2022-10-16T04:05:49;1.23;;;0.50;;
16430;SDS011;8325;49.284;7.238;2022-10-16T04:10:01;2.88;;;0.77;;
16430;SDS011;8325;49.284;7.238;2022-10-16T04:14:13;2.08;;;0.77;;
16430;SDS011;8325;49.284;7.238;2022-10-16T04:18:24;1.50;;;0.80;;
16430;SDS011;8325;49.284;7.238;2022-10-16T04:22:38;2.60;;;0.95;;
16430;SDS011;8325;49.284;7.238;2022-10-16T04:26:50;0.82;;;0.70;;
16430;SDS011;8325;49.284;7.238;2022-10-16T04:31:05;3.67;;;0.77;;
16430;SDS011;8325;49.284;7.238;2022-10-16T04:35:17;0.80;;;0.80;;
16430;SDS011;8325;49.284;7.238;2022-10-16T04:39:29;1.85;;;0.70;;
16430;SDS011;8325;49.284;7.238;2022-10-16T04:43:41;2.08;;;0.60;;
16430;SDS011;8325;49.284;7.238;2022-10-16T04:47:52;1.00;;;0.90;;
16430;SDS011;8325;49.284;7.238;2022-10-16T04:52:04;2.95;;;0.68;;
16430;SDS011;8325;49.284;7.238;2022-10-16T04:56:15;2.30;;;0.70;;
16430;SDS011;8325;49.284;7.238;2022-10-16T05:00:27;1.58;;;0.70;;
16430;SDS011;8325;49.284;7.238;2022-10-16T05:04:39;3.38;;;0.90;;
16430;SDS011;8325;49.284;7.238;2022-10-16T05:08:50;1.02;;;0.90;;
16430;SDS011;8325;49.284;7.238;2022-10-16T05:13:02;1.27;;;0.80;;
16430;SDS011;8325;49.284;7.238;2022-10-16T05:17:14;3.13;;;0.77;;
16430;SDS011;8325;49.284;7.238;2022-10-16T05:21:25;1.45;;;0.77;;
16430;SDS011;8325;49.284;7.238;2022-10-16T05:25:37;2.08;;;1.10;;
16430;SDS011;8325;49.284;7.238;2022-10-16T05:29:49;1.52;;;0.90;;
16430;SDS011;8325;49.284;7.238;2022-10-16T05:34:00;2.20;;;0.90;;
16430;SDS011;8325;49.284;7.238;2022-10-16T05:38:12;1.73;;;1.00;;
16430;SDS011;8325;49.284;7.238;2022-10-16T05:42:24;1.73;;;0.88;;
16430;SDS011;8325;49.284;7.238;2022-10-16T05:46:36;1.60;;;1.00;;
16430;SDS011;8325;49.284;7.238;2022-10-16T05:50:47;1.63;;;0.90;;
16430;SDS011;8325;49.284;7.238;2022-10-16T05:54:59;1.67;;;0.70;;
16430;SDS011;8325;49.284;7.238;2022-10-16T05:59:10;1.42;;;0.95;;
16430;SDS011;8325;49.284;7.238;2022-10-16T06:03:22;1.20;;;1.10;;
16430;SDS011;8325;49.284;7.238;2022-10-16T06:07:34;1.38;;;1.20;;
16430;SDS011;8325;49.284;7.238;2022-10-16T06:11:49;3.28;;;1.00;;
16430;SDS011;8325;49.284;7.238;2022-10-16T06:16:01;2.15;;;1.45;;
16430;SDS011;8325;49.284;7.238;2022-10-16T06:20:13;3.42;;;1.52;;
16430;SDS011;8325;49.284;7.238;2022-10-16T06:24:25;9.88;;;5.93;;
16430;SDS011;8325;49.284;7.238;2022-10-16T06:28:37;6.78;;;5.40;;
16430;SDS011;8325;49.284;7.238;2022-10-16T06:32:49;3.25;;;2.47;;
16430;SDS011;8325;49.284;7.238;2022-10-16T06:37:00;3.45;;;1.80;;
16430;SDS011;8325;49.284;7.238;2022-10-16T06:41:13;2.45;;;1.60;;
16430;SDS011;8325;49.284;7.238;2022-10-16T06:45:27;2.72;;;1.80;;
16430;SDS011;8325;49.284;7.238;2022-10-16T06:49:38;2.92;;;1.98;;
16430;SDS011;8325;49.284;7.238;2022-10-16T06:53:51;3.90;;;2.40;;
16430;SDS011;8325;49.284;7.238;2022-10-16T06:58:14;2.60;;;2.30;;
16430;SDS011;8325;49.284;7.238;2022-10-16T07:02:25;2.45;;;2.20;;
16430;SDS011;8325;49.284;7.238;2022-10-16T07:06:38;2.53;;;2.10;;
16430;SDS011;8325;49.284;7.238;2022-10-16T07:10:57;2.45;;;2.13;;
16430;SDS011;8325;49.284;7.238;2022-10-16T07:15:09;4.05;;;1.90;;
16430;SDS011;8325;49.284;7.238;2022-10-16T07:19:21;3.95;;;2.22;;
16430;SDS011;8325;49.284;7.238;2022-10-16T07:23:32;4.90;;;3.38;;
16430;SDS011;8325;49.284;7.238;2022-10-16T07:27:44;4.32;;;2.70;;
16430;SDS011;8325;49.284;7.238;2022-10-16T07:31:55;3.42;;;2.13;;
16430;SDS011;8325;49.284;7.238;2022-10-16T07:36:07;6.15;;;2.45;;
16430;SDS011;8325;49.284;7.238;2022-10-16T07:40:25;4.50;;;4.10;;
16430;SDS011;8325;49.284;7.238;2022-10-16T07:44:38;5.03;;;4.30;;
16430;SDS011;8325;49.284;7.238;2022-10-16T07:48:49;3.60;;;3.13;;
16430;SDS011;8325;49.284;7.238;2022-10-16T07:53:01;3.13;;;2.83;;
16430;SDS011;8325;49.284;7.238;2022-10-16T07:57:12;2.50;;;2.30;;
16430;SDS011;8325;49.284;7.238;2022-10-16T08:01:30;3.55;;;2.60;;
16430;SDS011;8325;49.284;7.238;2022-10-16T08:05:41;3.50;;;2.35;;
16430;SDS011;8325;49.284;7.238;2022-10-16T08:09:53;3.25;;;2.60;;
16430;SDS011;8325;49.284;7.238;2022-10-16T08:14:05;3.65;;;2.30;;
16430;SDS011;8325;49.284;7.238;2022-10-16T08:18:16;3.35;;;2.25;;
16430;SDS011;8325;49.284;7.238;2022-10-16T08:22:28;9.85;;;7.43;;
16430;SDS011;8325;49.284;7.238;2022-10-16T08:26:39;11.90;;;6.28;;
16430;SDS011;8325;49.284;7.238;2022-10-16T08:30:51;11.10;;;5.00;;
16430;SDS011;8325;49.284;7.238;2022-10-16T08:35:02;11.05;;;5.10;;
16430;SDS011;8325;49.284;7.238;2022-10-16T08:39:15;4.82;;;3.15;;
16430;SDS011;8325;49.284;7.238;2022-10-16T08:44:11;5.75;;;3.42;;
16430;SDS011;8325;49.284;7.238;2022-10-16T08:48:21;6.18;;;3.42;;
16430;SDS011;8325;49.284;7.238;2022-10-16T08:52:38;6.03;;;2.83;;
16430;SDS011;8325;49.284;7.238;2022-10-16T08:57:09;4.00;;;2.40;;
16430;SDS011;8325;49.284;7.238;2022-10-16T09:01:41;3.97;;;2.63;;
16430;SDS011;8325;49.284;7.238;2022-10-16T09:23:36;3.63;;;2.40;;
16430;SDS011;8325;49.284;7.238;2022-10-16T09:27:48;4.53;;;2.60;;
16430;SDS011;8325;49.284;7.238;2022-10-16T09:32:15;3.75;;;2.20;;
16430;SDS011;8325;49.284;7.238;2022-10-16T09:36:30;3.67;;;2.58;;
16430;SDS011;8325;49.284;7.238;2022-10-16T09:40:51;5.15;;;2.30;;
16430;SDS011;8325;49.284;7.238;2022-10-16T09:45:22;4.80;;;2.53;;
16430;SDS011;8325;49.284;7.238;2022-10-16T09:49:34;4.68;;;2.90;;
16430;SDS011;8325;49.284;7.238;2022-10-16T09:53:47;5.30;;;2.55;;
16430;SDS011;8325;49.284;7.238;2022-10-16T09:57:59;3.85;;;2.33;;
16430;SDS011;8325;49.284;7.238;2022-10-16T10:02:10;3.85;;;2.33;;
16430;SDS011;8325;49.284;7.238;2022-10-16T10:06:30;6.13;;;2.55;;
16430;SDS011;8325;49.284;7.238;2022-10-16T10:10:44;3.13;;;2.67;;
16430;SDS011;8325;49.284;7.238;2022-10-16T10:15:04;2.90;;;2.58;;
16430;SDS011;8325;49.284;7.238;2022-10-16T10:19:23;6.75;;;2.40;;
16430;SDS011;8325;49.284;7.238;2022-10-16T10:23:40;4.10;;;2.40;;
16430;SDS011;8325;49.284;7.238;2022-10-16T10:32:35;4.15;;;2.70;;
16430;SDS011;8325;49.284;7.238;2022-10-16T10:37:28;3.42;;;2.38;;
16430;SDS011;8325;49.284;7.238;2022-10-16T10:51:19;2.80;;;2.50;;
16430;SDS011;8325;49.284;7.238;2022-10-16T10:55:43;4.88;;;2.78;;
16430;SDS011;8325;49.284;7.238;2022-10-16T11:04:48;6.75;;;3.80;;
16430;SDS011;8325;49.284;7.238;2022-10-16T11:13:46;3.45;;;2.58;;
16430;SDS011;8325;49.284;7.238;2022-10-16T11:18:19;3.00;;;2.70;;
16430;SDS011;8325;49.284;7.238;2022-10-16T11:22:37;3.58;;;2.63;;
16430;SDS011;8325;49.284;7.238;2022-10-16T11:26:53;2.90;;;2.60;;
16430;SDS011;8325;49.284;7.238;2022-10-16T11:31:14;3.40;;;3.10;;
16430;SDS011;8325;49.284;7.238;2022-10-16T11:40:27;5.50;;;2.72;;
16430;SDS011;8325;49.284;7.238;2022-10-16T11:49:30;3.08;;;2.50;;
16430;SDS011;8325;49.284;7.238;2022-10-16T11:53:56;3.95;;;2.60;;
16430;SDS011;8325;49.284;7.238;2022-10-16T11:58:27;4.32;;;3.53;;
16430;SDS011;8325;49.284;7.238;2022-10-16T12:03:03;4.13;;;3.03;;
16430;SDS011;8325;49.284;7.238;2022-10-16T12:07:24;5.20;;;3.47;;
16430;SDS011;8325;49.284;7.238;2022-10-16T12:11:44;4.20;;;3.10;;
16430;SDS011;8325;49.284;7.238;2022-10-16T12:20:30;4.32;;;2.80;;
16430;SDS011;8325;49.284;7.238;2022-10-16T12:24:43;5.10;;;4.15;;
16430;SDS011;8325;49.284;7.238;2022-10-16T12:28:55;2.90;;;2.60;;
16430;SDS011;8325;49.284;7.238;2022-10-16T12:33:19;3.33;;;3.03;;
16430;SDS011;8325;49.284;7.238;2022-10-16T12:37:33;4.10;;;2.55;;
16430;SDS011;8325;49.284;7.238;2022-10-16T12:41:46;6.10;;;3.45;;
16430;SDS011;8325;49.284;7.238;2022-10-16T12:45:59;4.82;;;3.15;;
16430;SDS011;8325;49.284;7.238;2022-10-16T12:50:34;4.45;;;2.95;;
16430;SDS011;8325;49.284;7.238;2022-10-16T12:54:49;5.47;;;2.80;;
16430;SDS011;8325;49.284;7.238;2022-10-16T12:59:10;6.47;;;2.92;;
16430;SDS011;8325;49.284;7.238;2022-10-16T13:17:49;3.28;;;2.53;;
16430;SDS011;8325;49.284;7.238;2022-10-16T13:22:29;3.10;;;2.40;;
16430;SDS011;8325;49.284;7.238;2022-10-16T13:27:02;4.88;;;2.78;;
16430;SDS011;8325;49.284;7.238;2022-10-16T13:31:33;6.15;;;3.70;;
16430;SDS011;8325;49.284;7.238;2022-10-16T13:35:49;7.88;;;3.95;;
16430;SDS011;8325;49.284;7.238;2022-10-16T13:40:18;5.68;;;3.88;;
16430;SDS011;8325;49.284;7.238;2022-10-16T13:44:31;6.95;;;3.90;;
16430;SDS011;8325;49.284;7.238;2022-10-16T13:49:01;6.72;;;3.50;;
16430;SDS011;8325;49.284;7.238;2022-10-16T13:53:14;3.95;;;3.42;;
16430;SDS011;8325;49.284;7.238;2022-10-16T13:57:26;5.55;;;3.22;;
16430;SDS011;8325;49.284;7.238;2022-10-16T14:01:41;3.75;;;3.17;;
16430;SDS011;8325;49.284;7.238;2022-10-16T14:05:56;4.43;;;2.90;;
16430;SDS011;8325;49.284;7.238;2022-10-16T14:10:30;4.75;;;3.10;;
16430;SDS011;8325;49.284;7.238;2022-10-16T14:14:44;6.75;;;2.80;;
16430;SDS011;8325;49.284;7.238;2022-10-16T14:19:01;6.60;;;3.17;;
16430;SDS011;8325;49.284;7.238;2022-10-16T14:23:28;4.90;;;3.53;;
16430;SDS011;8325;49.284;7.238;2022-10-16T14:27:41;4.53;;;3.10;;
16430;SDS011;8325;49.284;7.238;2022-10-16T14:31:57;3.92;;;2.75;;
16430;SDS011;8325;49.284;7.238;2022-10-16T14:40:24;6.65;;;3.38;;
16430;SDS011;8325;49.284;7.238;2022-10-16T14:44:38;5.45;;;3.03;;
16430;SDS011;8325;49.284;7.238;2022-10-16T14:48:51;5.28;;;3.75;;
16430;SDS011;8325;49.284;7.238;2022-10-16T14:53:11;4.60;;;3.35;;
16430;SDS011;8325;49.284;7.238;2022-10-16T14:57:24;7.70;;;3.60;;
16430;SDS011;8325;49.284;7.238;2022-10-16T15:01:42;4.40;;;3.70;;
16430;SDS011;8325;49.284;7.238;2022-10-16T15:05:54;6.30;;;4.13;;
16430;SDS011;8325;49.284;7.238;2022-10-16T15:10:06;10.43;;;7.55;;
16430;SDS011;8325;49.284;7.238;2022-10-16T15:14:17;15.43;;;11.13;;
16430;SDS011;8325;49.284;7.238;2022-10-16T15:18:29;12.73;;;10.07;;
16430;SDS011;8325;49.284;7.238;2022-10-16T15:22:41;9.85;;;7.07;;
16430;SDS011;8325;49.284;7.238;2022-10-16T15:26:52;17.00;;;11.25;;
16430;SDS011;8325;49.284;7.238;2022-10-16T15:31:04;23.83;;;14.10;;
16430;SDS011;8325;49.284;7.238;2022-10-16T15:35:16;14.27;;;9.93;;
16430;SDS011;8325;49.284;7.238;2022-10-16T15:39:28;15.20;;;7.45;;
16430;SDS011;8325;49.284;7.238;2022-10-16T15:43:39;8.65;;;7.03;;
16430;SDS011;8325;49.284;7.238;2022-10-16T15:47:51;9.93;;;7.60;;
16430;SDS011;8325;49.284;7.238;2022-10-16T15:52:03;11.73;;;6.25;;
16430;SDS011;8325;49.284;7.238;2022-10-16T15:56:14;6.15;;;5.50;;
16430;SDS011;8325;49.284;7.238;2022-10-16T16:00:26;8.07;;;5.45;;
16430;SDS011;8325;49.284;7.238;2022-10-16T16:04:38;11.68;;;5.45;;
16430;SDS011;8325;49.284;7.238;2022-10-16T16:08:54;9.00;;;4.88;;
16430;SDS011;8325;49.284;7.238;2022-10-16T16:13:06;5.43;;;4.72;;
16430;SDS011;8325;49.284;7.238;2022-10-16T16:17:18;11.50;;;5.65;;
16430;SDS011;8325;49.284;7.238;2022-10-16T16:21:29;10.23;;;5.20;;
16430;SDS011;8325;49.284;7.238;2022-10-16T16:25:41;9.13;;;5.80;;
16430;SDS011;8325;49.284;7.238;2022-10-16T16:29:52;7.25;;;6.20;;
16430;SDS011;8325;49.284;7.238;2022-10-16T16:34:04;7.63;;;5.68;;
16430;SDS011;8325;49.284;7.238;2022-10-16T16:38:16;7.68;;;5.55;;
16430;SDS011;8325;49.284;7.238;2022-10-16T16:42:27;10.02;;;6.47;;
16430;SDS011;8325;49.284;7.238;2022-10-16T16:46:39;13.02;;;6.50;;
16430;SDS011;8325;49.284;7.238;2022-10-16T16:50:51;11.82;;;6.82;;
16430;SDS011;8325;49.284;7.238;2022-10-16T16:55:03;12.20;;;9.02;;
16430;SDS011;8325;49.284;7.238;2022-10-16T16:59:16;15.20;;;8.07;;
16430;SDS011;8325;49.284;7.238;2022-10-16T17:03:34;11.75;;;8.60;;
16430;SDS011;8325;49.284;7.238;2022-10-16T17:07:46;10.77;;;8.00;;
16430;SDS011;8325;49.284;7.238;2022-10-16T17:11:57;11.13;;;7.95;;
16430;SDS011;8325;49.284;7.238;2022-10-16T17:16:09;16.05;;;8.52;;
16430;SDS011;8325;49.284;7.238;2022-10-16T17:20:21;14.10;;;8.55;;
16430;SDS011;8325;49.284;7.238;2022-10-16T17:24:32;19.98;;;10.07;;
16430;SDS011;8325;49.284;7.238;2022-10-16T17:28:44;15.07;;;10.13;;
16430;SDS011;8325;49.284;7.238;2022-10-16T17:32:55;16.17;;;9.95;;
16430;SDS011;8325;49.284;7.238;2022-10-16T17:37:07;17.42;;;9.85;;
16430;SDS011;8325;49.284;7.238;2022-10-16T17:41:20;17.30;;;10.02;;
16430;SDS011;8325;49.284;7.238;2022-10-16T17:45:35;18.08;;;10.75;;
16430;SDS011;8325;49.284;7.238;2022-10-16T17:49:49;16.25;;;10.98;;
16430;SDS011;8325;49.284;7.238;2022-10-16T17:54:01;16.98;;;10.32;;
16430;SDS011;8325;49.284;7.238;2022-10-16T17:58:13;17.65;;;11.55;;
16430;SDS011;8325;49.284;7.238;2022-10-16T18:02:25;17.80;;;11.82;;
16430;SDS011;8325;49.284;7.238;2022-10-16T18:06:37;16.27;;;12.32;;
16430;SDS011;8325;49.284;7.238;2022-10-16T18:10:49;14.88;;;12.02;;
16430;SDS011;8325;49.284;7.238;2022-10-16T18:15:01;19.25;;;12.60;;
16430;SDS011;8325;49.284;7.238;2022-10-16T18:19:13;21.65;;;12.75;;
16430;SDS011;8325;49.284;7.238;2022-10-16T18:23:24;16.55;;;12.32;;
16430;SDS011;8325;49.284;7.238;2022-10-16T18:27:36;18.80;;;11.70;;
16430;SDS011;8325;49.284;7.238;2022-10-16T18:31:48;21.30;;;13.77;;
16430;SDS011;8325;49.284;7.238;2022-10-16T18:36:01;16.10;;;11.75;;
16430;SDS011;8325;49.284;7.238;2022-10-16T18:40:14;15.98;;;13.13;;
16430;SDS011;8325;49.284;7.238;2022-10-16T18:44:26;20.27;;;14.68;;
16430;SDS011;8325;49.284;7.238;2022-10-16T18:48:38;27.77;;;19.17;;
16430;SDS011;8325;49.284;7.238;2022-10-16T18:52:50;31.45;;;21.33;;
16430;SDS011;8325;49.284;7.238;2022-10-16T18:57:02;24.83;;;19.77;;
16430;SDS011;8325;49.284;7.238;2022-10-16T19:01:15;31.70;;;24.73;;
16430;SDS011;8325;49.284;7.238;2022-10-16T19:05:32;37.20;;;22.60;;
16430;SDS011;8325;49.284;7.238;2022-10-16T19:09:44;29.23;;;20.65;;
16430;SDS011;8325;49.284;7.238;2022-10-16T19:13:55;34.85;;;24.00;;
16430;SDS011;8325;49.284;7.238;2022-10-16T19:18:07;23.63;;;18.40;;
16430;SDS011;8325;49.284;7.238;2022-10-16T19:22:19;21.05;;;11.00;;
16430;SDS011;8325;49.284;7.238;2022-10-16T19:27:01;10.35;;;6.18;;
16430;SDS011;8325;49.284;7.238;2022-10-16T19:31:17;23.58;;;5.80;;
16430;SDS011;8325;49.284;7.238;2022-10-16T19:35:31;6.60;;;4.63;;
16430;SDS011;8325;49.284;7.238;2022-10-16T19:39:43;7.43;;;5.32;;
16430;SDS011;8325;49.284;7.238;2022-10-16T19:43:58;12.57;;;5.50;;
16430;SDS011;8325;49.284;7.238;2022-10-16T19:48:11;10.52;;;5.95;;
16430;SDS011;8325;49.284;7.238;2022-10-16T19:52:22;8.18;;;5.70;;
16430;SDS011;8325;49.284;7.238;2022-10-16T19:56:34;9.10;;;6.45;;
16430;SDS011;8325;49.284;7.238;2022-10-16T20:00:46;9.90;;;5.93;;
16430;SDS011;8325;49.284;7.238;2022-10-16T20:04:58;26.63;;;6.45;;
16430;SDS011;8325;49.284;7.238;2022-10-16T20:09:10;20.17;;;6.00;;
16430;SDS011;8325;49.284;7.238;2022-10-16T20:13:21;9.23;;;5.30;;
16430;SDS011;8325;49.284;7.238;2022-10-16T20:17:33;11.93;;;5.60;;
16430;SDS011;8325;49.284;7.238;2022-10-16T20:21:45;17.38;;;5.88;;
16430;SDS011;8325;49.284;7.238;2022-10-16T20:25:56;19.52;;;6.50;;
16430;SDS011;8325;49.284;7.238;2022-10-16T20:30:14;13.07;;;6.80;;
16430;SDS011;8325;49.284;7.238;2022-10-16T20:34:26;20.80;;;7.35;;
16430;SDS011;8325;49.284;7.238;2022-10-16T20:38:38;22.02;;;8.02;;
16430;SDS011;8325;49.284;7.238;2022-10-16T20:42:50;21.70;;;7.13;;
16430;SDS011;8325;49.284;7.238;2022-10-16T20:47:01;14.88;;;7.28;;
16430;SDS011;8325;49.284;7.238;2022-10-16T20:51:13;13.77;;;6.32;;
16430;SDS011;8325;49.284;7.238;2022-10-16T20:55:29;9.45;;;6.93;;
16430;SDS011;8325;49.284;7.238;2022-10-16T20:59:41;12.00;;;6.40;;
16430;SDS011;8325;49.284;7.238;2022-10-16T21:03:54;10.52;;;7.40;;
16430;SDS011;8325;49.284;7.238;2022-10-16T21:08:07;16.05;;;8.43;;
16430;SDS011;8325;49.284;7.238;2022-10-16T21:12:19;12.32;;;8.95;;
16430;SDS011;8325;49.284;7.238;2022-10-16T21:16:31;17.15;;;7.60;;
16430;SDS011;8325;49.284;7.238;2022-10-16T21:20:44;20.10;;;8.40;;
16430;SDS011;8325;49.284;7.238;2022-10-16T21:24:56;16.52;;;8.98;;
16430;SDS011;8325;49.284;7.238;2022-10-16T21:29:08;17.52;;;10.07;;
